首页
METAR-TAF:

METAR-TAF

机场 :

约翰斯敦, 宾夕法尼亚州, 美国

纬度: 40-18-58N, 经度: 078-50-02W, 海拔: 696米

当前天气观测

该预报发布于39分钟前的07:54 UTC
风速18节,风向西转西南,有时为24节阵风
温度 13°C
湿度 77%
气压 1005 hPa
能見度: 16.1公里
多云层高于2200英尺
阴天层高于2800英尺

METAR: KJST 100754Z AUTO 24018G24KT 10SM BKN022 OVC028 13/09 A2967 RMK AO2 PK WND 25028/0730 RAE0655 SLP048 P0000 T01330089 $

时间: 03:33 (08:33 UTC)

预报

该预报发布于2小时和33分钟前的06:00 UTC
预报有效从10日的 06点(UTC)到 11日的 06点(UTC)
风速14节,风向西南,有时为24节阵风
能見度: 10公里
多云层高于1500英尺
阴天层高于2500英尺
附近有阵雨
短暂存在
从 10日的 06点(UTC)到 10日的 08点(UTC)
散云层高于1500英尺
阴天层高于2500英尺
从 10日的 1200点(UTC)
风速13节,风向西,有时为22节阵风
能見度: 8.0公里
阴天层高于800英尺
小阵雨, 轻雾
从 10日的 1600点(UTC)
风速14节,风向西,有时为24节阵风
能見度: 10公里
多云层高于1500英尺
阴天层高于12000英尺
从 10日的 1900点(UTC)
风速15节,风向西,有时为24节阵风
能見度: 10公里
多云层高于2500英尺
阴天层高于12000英尺

TAF: KJST 100600Z 1006/1106 23014G24KT P6SM VCSH BKN015 OVC025 TEMPO 1006/1008 SCT015 OVC025 FM101200 26013G22KT 5SM -SHRA BR OVC008 FM101600 27014G24KT P6SM BKN015 OVC120 FM101900 28015G24KT P6SM BKN025 OVC120

超过4000个机场的气象观测和天气预报(METAR&TAF报告)。

可查询的气象台以黄色和红色小点在地图上表示。

将鼠标移到小点上方,可查看气象台名称。

然后点击查看天气观测和预报。

如需切换地图:点击带黑十字的绿色按钮放大地图;点击带横线的绿色按钮缩小地图;或者点击绿色箭头查看邻近地区的地图。


METAR-TAF: